sensor_id;sensor_type;location;lat;lon;timestamp;pressure;altitude;pressure_sealevel;temperature;humidity
60170;BME280;46042;49.444;6.862;2023-03-21T00:00:41;98906.59;;;5.95;100.00
60170;BME280;46042;49.444;6.862;2023-03-21T00:03:08;98897.25;;;5.90;100.00
60170;BME280;46042;49.444;6.862;2023-03-21T00:05:43;98897.38;;;5.87;100.00
60170;BME280;46042;49.444;6.862;2023-03-21T00:08:17;98897.69;;;5.79;100.00
60170;BME280;46042;49.444;6.862;2023-03-21T00:10:43;98894.34;;;5.75;100.00
60170;BME280;46042;49.444;6.862;2023-03-21T00:13:11;98891.41;;;5.62;100.00
60170;BME280;46042;49.444;6.862;2023-03-21T00:15:41;98890.63;;;5.60;100.00
60170;BME280;46042;49.444;6.862;2023-03-21T00:18:34;98891.59;;;5.58;100.00
60170;BME280;46042;49.444;6.862;2023-03-21T00:21:11;98881.19;;;5.56;100.00
60170;BME280;46042;49.444;6.862;2023-03-21T00:23:59;98882.91;;;5.57;100.00
60170;BME280;46042;49.444;6.862;2023-03-21T00:26:26;98883.03;;;5.54;100.00
60170;BME280;46042;49.444;6.862;2023-03-21T00:28:53;98885.63;;;5.54;100.00
60170;BME280;46042;49.444;6.862;2023-03-21T00:31:19;98880.50;;;5.52;100.00
60170;BME280;46042;49.444;6.862;2023-03-21T00:33:46;98879.72;;;5.50;100.00
60170;BME280;46042;49.444;6.862;2023-03-21T00:36:12;98876.22;;;5.50;100.00
60170;BME280;46042;49.444;6.862;2023-03-21T00:38:40;98871.00;;;5.50;100.00
60170;BME280;46042;49.444;6.862;2023-03-21T00:41:08;98874.59;;;5.47;100.00
60170;BME280;46042;49.444;6.862;2023-03-21T00:43:51;98872.78;;;5.49;100.00
60170;BME280;46042;49.444;6.862;2023-03-21T00:46:21;98864.03;;;5.50;100.00
60170;BME280;46042;49.444;6.862;2023-03-21T00:48:50;98869.31;;;5.49;100.00
60170;BME280;46042;49.444;6.862;2023-03-21T00:51:20;98856.25;;;5.49;100.00
60170;BME280;46042;49.444;6.862;2023-03-21T00:53:54;98855.31;;;5.50;100.00
60170;BME280;46042;49.444;6.862;2023-03-21T00:56:21;98860.69;;;5.47;100.00
60170;BME280;46042;49.444;6.862;2023-03-21T00:58:48;98867.75;;;5.45;100.00
60170;BME280;46042;49.444;6.862;2023-03-21T01:01:14;98860.09;;;5.40;100.00
60170;BME280;46042;49.444;6.862;2023-03-21T01:03:41;98854.03;;;5.39;100.00
60170;BME280;46042;49.444;6.862;2023-03-21T01:06:13;98859.91;;;5.45;100.00
60170;BME280;46042;49.444;6.862;2023-03-21T01:08:46;98858.06;;;5.47;100.00
60170;BME280;46042;49.444;6.862;2023-03-21T01:11:21;98861.47;;;5.49;100.00
60170;BME280;46042;49.444;6.862;2023-03-21T01:13:50;98859.16;;;5.41;100.00
60170;BME280;46042;49.444;6.862;2023-03-21T01:16:27;98860.03;;;5.41;100.00
60170;BME280;46042;49.444;6.862;2023-03-21T01:18:54;98852.13;;;5.43;100.00
60170;BME280;46042;49.444;6.862;2023-03-21T01:21:21;98847.81;;;5.42;100.00
60170;BME280;46042;49.444;6.862;2023-03-21T01:23:48;98846.91;;;5.43;100.00
60170;BME280;46042;49.444;6.862;2023-03-21T01:26:15;98843.38;;;5.44;100.00
60170;BME280;46042;49.444;6.862;2023-03-21T01:28:42;98844.16;;;5.46;100.00
60170;BME280;46042;49.444;6.862;2023-03-21T01:31:12;98833.59;;;5.49;100.00
60170;BME280;46042;49.444;6.862;2023-03-21T01:33:39;98836.13;;;5.51;100.00
60170;BME280;46042;49.444;6.862;2023-03-21T01:36:06;98829.16;;;5.51;100.00
60170;BME280;46042;49.444;6.862;2023-03-21T01:38:40;98828.22;;;5.52;100.00
60170;BME280;46042;49.444;6.862;2023-03-21T01:41:15;98820.44;;;5.51;100.00
60170;BME280;46042;49.444;6.862;2023-03-21T01:43:45;98829.16;;;5.51;100.00
60170;BME280;46042;49.444;6.862;2023-03-21T01:46:33;98825.75;;;5.49;100.00
60170;BME280;46042;49.444;6.862;2023-03-21T01:49:32;98821.38;;;5.50;100.00
60170;BME280;46042;49.444;6.862;2023-03-21T01:52:08;98817.81;;;5.51;100.00
60170;BME280;46042;49.444;6.862;2023-03-21T01:54:45;98815.22;;;5.51;100.00
60170;BME280;46042;49.444;6.862;2023-03-21T01:57:17;98812.75;;;5.48;100.00
60170;BME280;46042;49.444;6.862;2023-03-21T01:59:49;98811.03;;;5.47;100.00
60170;BME280;46042;49.444;6.862;2023-03-21T02:02:27;98817.09;;;5.47;100.00
60170;BME280;46042;49.444;6.862;2023-03-21T02:04:56;98809.16;;;5.50;100.00
60170;BME280;46042;49.444;6.862;2023-03-21T02:07:32;98801.22;;;5.52;100.00
60170;BME280;46042;49.444;6.862;2023-03-21T02:10:04;98796.00;;;5.52;100.00
60170;BME280;46042;49.444;6.862;2023-03-21T02:12:33;98790.72;;;5.53;100.00
60170;BME280;46042;49.444;6.862;2023-03-21T02:15:00;98793.47;;;5.50;100.00
60170;BME280;46042;49.444;6.862;2023-03-21T02:17:36;98789.94;;;5.51;100.00
60170;BME280;46042;49.444;6.862;2023-03-21T02:28:56;98783.03;;;5.50;100.00
60170;BME280;46042;49.444;6.862;2023-03-21T02:31:33;98783.03;;;5.50;100.00
60170;BME280;46042;49.444;6.862;2023-03-21T02:34:23;98779.56;;;5.50;100.00
60170;BME280;46042;49.444;6.862;2023-03-21T02:37:09;98776.03;;;5.51;100.00
60170;BME280;46042;49.444;6.862;2023-03-21T02:40:07;98767.13;;;5.55;100.00
60170;BME280;46042;49.444;6.862;2023-03-21T02:45:31;98767.84;;;5.59;100.00
60170;BME280;46042;49.444;6.862;2023-03-21T02:48:08;98757.41;;;5.59;100.00
60170;BME280;46042;49.444;6.862;2023-03-21T02:50:51;98764.47;;;5.57;100.00
60170;BME280;46042;49.444;6.862;2023-03-21T02:53:21;98756.47;;;5.60;100.00
60170;BME280;46042;49.444;6.862;2023-03-21T02:55:50;98752.03;;;5.62;100.00
60170;BME280;46042;49.444;6.862;2023-03-21T02:58:20;98752.03;;;5.62;100.00
60170;BME280;46042;49.444;6.862;2023-03-21T03:00:49;98747.81;;;5.59;100.00
60170;BME280;46042;49.444;6.862;2023-03-21T03:03:16;98748.78;;;5.57;100.00
60170;BME280;46042;49.444;6.862;2023-03-21T03:06:00;98753.50;;;5.48;100.00
60170;BME280;46042;49.444;6.862;2023-03-21T03:11:38;98738.28;;;5.37;100.00
60170;BME280;46042;49.444;6.862;2023-03-21T03:17:38;98743.97;;;5.26;100.00
60170;BME280;46042;49.444;6.862;2023-03-21T03:22:48;98748.22;;;5.08;100.00
60170;BME280;46042;49.444;6.862;2023-03-21T03:25:51;98748.66;;;4.97;100.00
60170;BME280;46042;49.444;6.862;2023-03-21T03:28:25;98744.28;;;4.98;100.00
60170;BME280;46042;49.444;6.862;2023-03-21T03:30:55;98752.09;;;4.98;100.00
60170;BME280;46042;49.444;6.862;2023-03-21T03:33:37;98753.81;;;4.99;100.00
60170;BME280;46042;49.444;6.862;2023-03-21T03:36:09;98747.84;;;4.95;100.00
60170;BME280;46042;49.444;6.862;2023-03-21T03:38:50;98747.84;;;4.95;100.00
60170;BME280;46042;49.444;6.862;2023-03-21T03:41:21;98750.41;;;4.97;100.00
60170;BME280;46042;49.444;6.862;2023-03-21T03:43:54;98743.50;;;4.96;100.00
60170;BME280;46042;49.444;6.862;2023-03-21T03:46:29;98736.63;;;4.93;100.00
60170;BME280;46042;49.444;6.862;2023-03-21T03:49:08;98736.63;;;4.93;100.00
60170;BME280;46042;49.444;6.862;2023-03-21T03:54:12;98742.63;;;4.95;100.00
60170;BME280;46042;49.444;6.862;2023-03-21T03:56:39;98741.78;;;4.95;100.00
60170;BME280;46042;49.444;6.862;2023-03-21T03:59:06;98739.53;;;4.86;100.00
60170;BME280;46042;49.444;6.862;2023-03-21T04:01:33;98741.47;;;4.82;100.00
60170;BME280;46042;49.444;6.862;2023-03-21T04:04:00;98732.59;;;4.86;100.00
60170;BME280;46042;49.444;6.862;2023-03-21T04:06:38;98733.50;;;4.85;100.00
60170;BME280;46042;49.444;6.862;2023-03-21T04:09:05;98730.09;;;4.83;100.00
60170;BME280;46042;49.444;6.862;2023-03-21T04:11:46;98739.53;;;4.86;100.00
60170;BME280;46042;49.444;6.862;2023-03-21T04:14:13;98736.03;;;4.87;100.00
60170;BME280;46042;49.444;6.862;2023-03-21T04:16:39;98731.81;;;4.84;100.00
60170;BME280;46042;49.444;6.862;2023-03-21T04:19:06;98731.84;;;4.82;100.00
60170;BME280;46042;49.444;6.862;2023-03-21T04:21:33;98731.00;;;4.82;100.00
60170;BME280;46042;49.444;6.862;2023-03-21T04:23:59;98731.94;;;4.81;100.00
60170;BME280;46042;49.444;6.862;2023-03-21T04:26:26;98730.22;;;4.80;100.00
60170;BME280;46042;49.444;6.862;2023-03-21T04:28:59;98730.28;;;4.78;100.00
60170;BME280;46042;49.444;6.862;2023-03-21T04:31:26;98732.03;;;4.78;100.00
60170;BME280;46042;49.444;6.862;2023-03-21T04:33:54;98731.25;;;4.76;100.00
60170;BME280;46042;49.444;6.862;2023-03-21T04:36:21;98725.25;;;4.74;100.00
60170;BME280;46042;49.444;6.862;2023-03-21T04:38:53;98734.78;;;4.75;100.00
60170;BME280;46042;49.444;6.862;2023-03-21T04:41:22;98731.47;;;4.71;100.00
60170;BME280;46042;49.444;6.862;2023-03-21T04:43:49;98743.19;;;4.81;100.00
60170;BME280;46042;49.444;6.862;2023-03-21T04:46:17;98734.41;;;4.84;100.00
60170;BME280;46042;49.444;6.862;2023-03-21T04:48:44;98731.84;;;4.82;100.00
60170;BME280;46042;49.444;6.862;2023-03-21T04:51:12;98735.44;;;4.80;100.00
60170;BME280;46042;49.444;6.862;2023-03-21T04:53:39;98738.84;;;4.82;100.00
60170;BME280;46042;49.444;6.862;2023-03-21T04:56:08;98727.50;;;4.83;100.00
60170;BME280;46042;49.444;6.862;2023-03-21T04:58:35;98742.25;;;4.84;100.00
60170;BME280;46042;49.444;6.862;2023-03-21T05:01:01;98733.50;;;4.85;100.00
60170;BME280;46042;49.444;6.862;2023-03-21T05:03:31;98734.41;;;4.84;100.00
60170;BME280;46042;49.444;6.862;2023-03-21T05:06:00;98734.31;;;4.86;100.00
60170;BME280;46042;49.444;6.862;2023-03-21T05:08:27;98735.50;;;4.78;100.00
60170;BME280;46042;49.444;6.862;2023-03-21T05:10:54;98737.38;;;4.75;100.00
60170;BME280;46042;49.444;6.862;2023-03-21T05:13:20;98736.47;;;4.76;100.00
60170;BME280;46042;49.444;6.862;2023-03-21T05:15:47;98741.50;;;4.80;100.00
60170;BME280;46042;49.444;6.862;2023-03-21T05:18:13;98746.53;;;4.85;100.00
60170;BME280;46042;49.444;6.862;2023-03-21T05:20:40;98737.84;;;4.84;100.00
60170;BME280;46042;49.444;6.862;2023-03-21T05:23:10;98745.03;;;4.79;100.00
60170;BME280;46042;49.444;6.862;2023-03-21T05:25:38;98744.38;;;4.74;100.00
60170;BME280;46042;49.444;6.862;2023-03-21T05:28:06;98749.34;;;4.80;100.00
60170;BME280;46042;49.444;6.862;2023-03-21T05:30:33;98744.91;;;4.82;100.00
60170;BME280;46042;49.444;6.862;2023-03-21T05:33:00;98739.53;;;4.86;100.00
60170;BME280;46042;49.444;6.862;2023-03-21T05:35:27;98744.59;;;4.90;100.00
60170;BME280;46042;49.444;6.862;2023-03-21T05:37:53;98740.16;;;4.92;100.00
60170;BME280;46042;49.444;6.862;2023-03-21T05:40:20;98741.06;;;4.91;100.00
60170;BME280;46042;49.444;6.862;2023-03-21T05:42:47;98738.41;;;4.93;100.00
60170;BME280;46042;49.444;6.862;2023-03-21T05:45:14;98740.88;;;4.96;100.00
60170;BME280;46042;49.444;6.862;2023-03-21T05:47:41;98738.22;;;4.97;100.00
60170;BME280;46042;49.444;6.862;2023-03-21T05:50:09;98733.78;;;5.00;100.00
60170;BME280;46042;49.444;6.862;2023-03-21T05:52:36;98733.69;;;5.01;100.00
60170;BME280;46042;49.444;6.862;2023-03-21T05:55:03;98738.88;;;5.03;100.00
60170;BME280;46042;49.444;6.862;2023-03-21T05:57:30;98739.59;;;5.06;100.00
60170;BME280;46042;49.444;6.862;2023-03-21T06:00:00;98735.94;;;5.10;100.00
60170;BME280;46042;49.444;6.862;2023-03-21T06:02:27;98735.06;;;5.10;100.00
60170;BME280;46042;49.444;6.862;2023-03-21T06:04:54;98728.88;;;5.12;100.00
60170;BME280;46042;49.444;6.862;2023-03-21T06:07:21;98734.84;;;5.16;100.00
60170;BME280;46042;49.444;6.862;2023-03-21T06:09:48;98729.59;;;5.16;100.00
60170;BME280;46042;49.444;6.862;2023-03-21T06:12:15;98736.78;;;5.11;100.00
60170;BME280;46042;49.444;6.862;2023-03-21T06:14:42;98729.47;;;5.19;100.00
60170;BME280;46042;49.444;6.862;2023-03-21T06:17:09;98733.06;;;5.17;100.00
60170;BME280;46042;49.444;6.862;2023-03-21T06:19:35;98726.91;;;5.18;100.00
60170;BME280;46042;49.444;6.862;2023-03-21T06:22:02;98733.00;;;5.18;100.00
60170;BME280;46042;49.444;6.862;2023-03-21T06:24:28;98733.59;;;5.25;100.00
60170;BME280;46042;49.444;6.862;2023-03-21T06:26:55;98736.13;;;5.26;100.00
60170;BME280;46042;49.444;6.862;2023-03-21T06:29:22;98736.72;;;5.33;100.00
60170;BME280;46042;49.444;6.862;2023-03-21T06:31:48;98739.00;;;5.41;100.00
60170;BME280;46042;49.444;6.862;2023-03-21T06:34:15;98742.56;;;5.38;100.00
60170;BME280;46042;49.444;6.862;2023-03-21T06:36:42;98739.84;;;5.41;100.00
60170;BME280;46042;49.444;6.862;2023-03-21T06:39:10;98745.78;;;5.45;100.00
60170;BME280;46042;49.444;6.862;2023-03-21T06:41:36;98739.84;;;5.41;100.00
60170;BME280;46042;49.444;6.862;2023-03-21T06:44:03;98733.44;;;5.49;100.00
60170;BME280;46042;49.444;6.862;2023-03-21T06:46:30;98740.16;;;5.54;100.00
60170;BME280;46042;49.444;6.862;2023-03-21T06:48:57;98737.28;;;5.61;100.00
60170;BME280;46042;49.444;6.862;2023-03-21T06:51:23;98728.50;;;5.62;100.00
60170;BME280;46042;49.444;6.862;2023-03-21T06:53:50;98731.78;;;5.67;100.00
60170;BME280;46042;49.444;6.862;2023-03-21T06:56:17;98734.31;;;5.68;100.00
60170;BME280;46042;49.444;6.862;2023-03-21T06:58:43;98737.59;;;5.74;100.00
60170;BME280;46042;49.444;6.862;2023-03-21T07:01:10;98732.13;;;5.78;100.00
60170;BME280;46042;49.444;6.862;2023-03-21T07:03:37;98724.03;;;5.84;100.00
60170;BME280;46042;49.444;6.862;2023-03-21T07:06:09;98723.75;;;5.91;100.00
60170;BME280;46042;49.444;6.862;2023-03-21T07:08:38;98722.69;;;5.95;100.00
60170;BME280;46042;49.444;6.862;2023-03-21T07:11:05;98726.03;;;5.98;100.00
60170;BME280;46042;49.444;6.862;2023-03-21T07:13:32;98718.94;;;6.01;100.00
60170;BME280;46042;49.444;6.862;2023-03-21T07:15:59;98724.72;;;6.09;100.00
60170;BME280;46042;49.444;6.862;2023-03-21T07:18:26;98725.25;;;6.16;100.00
60170;BME280;46042;49.444;6.862;2023-03-21T07:20:53;98723.44;;;6.18;100.00
60170;BME280;46042;49.444;6.862;2023-03-21T07:23:21;98730.13;;;6.23;100.00
60170;BME280;46042;49.444;6.862;2023-03-21T07:25:49;98731.72;;;6.28;100.00
60170;BME280;46042;49.444;6.862;2023-03-21T07:28:16;98729.78;;;6.31;100.00
60170;BME280;46042;49.444;6.862;2023-03-21T07:30:44;98732.97;;;6.38;100.00
60170;BME280;46042;49.444;6.862;2023-03-21T07:33:11;98736.13;;;6.45;100.00
60170;BME280;46042;49.444;6.862;2023-03-21T07:35:38;98741.94;;;6.51;100.00
60170;BME280;46042;49.444;6.862;2023-03-21T07:38:06;98739.09;;;6.56;100.00
60170;BME280;46042;49.444;6.862;2023-03-21T07:40:33;98744.25;;;6.58;100.00
60170;BME280;46042;49.444;6.862;2023-03-21T07:42:59;98743.31;;;6.59;100.00
60170;BME280;46042;49.444;6.862;2023-03-21T07:45:31;98742.13;;;6.66;100.00
60170;BME280;46042;49.444;6.862;2023-03-21T07:47:57;98749.66;;;6.72;100.00
60170;BME280;46042;49.444;6.862;2023-03-21T07:50:24;98746.88;;;6.75;100.00
60170;BME280;46042;49.444;6.862;2023-03-21T07:52:51;98751.84;;;6.81;100.00
60170;BME280;46042;49.444;6.862;2023-03-21T07:55:17;98752.78;;;6.80;100.00
60170;BME280;46042;49.444;6.862;2023-03-21T07:57:44;98752.41;;;6.88;100.00
60170;BME280;46042;49.444;6.862;2023-03-21T08:00:12;98759.19;;;6.92;100.00
60170;BME280;46042;49.444;6.862;2023-03-21T08:02:49;98756.19;;;7.00;100.00
60170;BME280;46042;49.444;6.862;2023-03-21T08:05:26;98760.94;;;7.09;100.00
60170;BME280;46042;49.444;6.862;2023-03-21T08:07:54;98750.19;;;7.16;100.00
60170;BME280;46042;49.444;6.862;2023-03-21T08:10:21;98750.34;;;7.13;100.00
60170;BME280;46042;49.444;6.862;2023-03-21T08:12:48;98748.25;;;7.19;100.00
60170;BME280;46042;49.444;6.862;2023-03-21T08:15:15;98742.59;;;7.27;100.00
60170;BME280;46042;49.444;6.862;2023-03-21T08:17:42;98742.09;;;7.38;100.00
60170;BME280;46042;49.444;6.862;2023-03-21T08:20:17;98747.78;;;7.46;100.00
60170;BME280;46042;49.444;6.862;2023-03-21T08:22:47;98740.09;;;7.59;100.00
60170;BME280;46042;49.444;6.862;2023-03-21T08:25:16;98741.41;;;7.68;100.00
60170;BME280;46042;49.444;6.862;2023-03-21T08:27:45;98738.31;;;7.77;100.00
60170;BME280;46042;49.444;6.862;2023-03-21T08:30:14;98739.66;;;7.85;100.00
60170;BME280;46042;49.444;6.862;2023-03-21T08:32:42;98736.63;;;7.92;100.00
60170;BME280;46042;49.444;6.862;2023-03-21T08:35:10;98732.66;;;8.01;100.00
60170;BME280;46042;49.444;6.862;2023-03-21T08:37:39;98737.75;;;8.04;100.00
60170;BME280;46042;49.444;6.862;2023-03-21T08:40:09;98733.63;;;8.16;100.00
60170;BME280;46042;49.444;6.862;2023-03-21T08:42:37;98739.53;;;8.20;100.00
60170;BME280;46042;49.444;6.862;2023-03-21T08:45:05;98731.53;;;8.23;100.00
60170;BME280;46042;49.444;6.862;2023-03-21T08:47:32;98732.53;;;8.20;100.00
60170;BME280;46042;49.444;6.862;2023-03-21T08:49:59;98732.53;;;8.20;99.59
60170;BME280;46042;49.444;6.862;2023-03-21T08:52:27;98733.22;;;8.24;99.58
60170;BME280;46042;49.444;6.862;2023-03-21T08:54:53;98725.84;;;8.31;98.31
60170;BME280;46042;49.444;6.862;2023-03-21T08:57:20;98732.38;;;8.39;98.37
60170;BME280;46042;49.444;6.862;2023-03-21T08:59:47;98724.50;;;8.39;98.97
60170;BME280;46042;49.444;6.862;2023-03-21T09:02:15;98730.75;;;8.37;97.55
60170;BME280;46042;49.444;6.862;2023-03-21T09:04:42;98723.13;;;8.32;97.53
60170;BME280;46042;49.444;6.862;2023-03-21T09:07:11;98729.75;;;8.39;97.40
60170;BME280;46042;49.444;6.862;2023-03-21T09:09:39;98733.78;;;8.45;98.80
60170;BME280;46042;49.444;6.862;2023-03-21T09:12:07;98734.44;;;8.50;99.39
60170;BME280;46042;49.444;6.862;2023-03-21T09:14:33;98725.69;;;8.66;100.00
60170;BME280;46042;49.444;6.862;2023-03-21T09:17:00;98732.34;;;8.72;99.09
60170;BME280;46042;49.444;6.862;2023-03-21T09:19:27;98733.53;;;8.82;100.00
60170;BME280;46042;49.444;6.862;2023-03-21T09:21:55;98731.72;;;8.99;100.00
60170;BME280;46042;49.444;6.862;2023-03-21T09:24:23;98727.88;;;9.04;98.38
60170;BME280;46042;49.444;6.862;2023-03-21T09:26:49;98734.19;;;9.16;100.00
60170;BME280;46042;49.444;6.862;2023-03-21T09:29:17;98733.38;;;9.30;99.94
60170;BME280;46042;49.444;6.862;2023-03-21T09:31:48;98729.19;;;9.42;98.17
60170;BME280;46042;49.444;6.862;2023-03-21T09:34:15;98725.91;;;9.53;96.02
60170;BME280;46042;49.444;6.862;2023-03-21T09:36:42;98731.06;;;9.54;96.90
60170;BME280;46042;49.444;6.862;2023-03-21T09:39:14;98724.78;;;9.57;97.13
60170;BME280;46042;49.444;6.862;2023-03-21T09:42:06;98728.63;;;9.66;95.98
60170;BME280;46042;49.444;6.862;2023-03-21T09:49:55;98729.19;;;9.86;94.11
60170;BME280;46042;49.444;6.862;2023-03-21T09:52:55;98724.00;;;9.84;93.41
60170;BME280;46042;49.444;6.862;2023-03-21T09:55:29;98726.38;;;9.60;91.74
60170;BME280;46042;49.444;6.862;2023-03-21T09:58:05;98729.84;;;9.75;95.92
60170;BME280;46042;49.444;6.862;2023-03-21T10:00:36;98728.06;;;9.75;94.65
60170;BME280;46042;49.444;6.862;2023-03-21T10:03:13;98722.53;;;9.80;100.00
60170;BME280;46042;49.444;6.862;2023-03-21T10:05:45;98729.84;;;9.75;95.42
60170;BME280;46042;49.444;6.862;2023-03-21T10:08:20;98720.84;;;9.79;96.89
60170;BME280;46042;49.444;6.862;2023-03-21T10:10:58;98716.91;;;9.86;98.57
60170;BME280;46042;49.444;6.862;2023-03-21T10:13:28;98717.38;;;9.93;100.00
60170;BME280;46042;49.444;6.862;2023-03-21T10:15:59;98714.34;;;9.99;100.00
60170;BME280;46042;49.444;6.862;2023-03-21T10:18:29;98713.47;;;9.99;100.00
60170;BME280;46042;49.444;6.862;2023-03-21T10:20:56;98714.53;;;9.96;100.00
60170;BME280;46042;49.444;6.862;2023-03-21T10:23:27;98715.47;;;9.95;100.00
60170;BME280;46042;49.444;6.862;2023-03-21T10:25:59;98729.47;;;9.95;100.00
60170;BME280;46042;49.444;6.862;2023-03-21T10:28:36;98722.31;;;9.83;100.00
60170;BME280;46042;49.444;6.862;2023-03-21T10:31:18;98723.94;;;9.86;100.00
60170;BME280;46042;49.444;6.862;2023-03-21T10:33:48;98725.06;;;9.81;100.00
60170;BME280;46042;49.444;6.862;2023-03-21T10:38:50;98719.69;;;9.83;100.00
60170;BME280;46042;49.444;6.862;2023-03-21T10:41:18;98718.88;;;9.82;100.00
60170;BME280;46042;49.444;6.862;2023-03-21T10:44:03;98713.31;;;9.87;100.00
60170;BME280;46042;49.444;6.862;2023-03-21T10:46:30;98713.88;;;9.92;100.00
60170;BME280;46042;49.444;6.862;2023-03-21T10:49:01;98705.69;;;9.97;100.00
60170;BME280;46042;49.444;6.862;2023-03-21T10:51:35;98706.91;;;10.06;100.00
60170;BME280;46042;49.444;6.862;2023-03-21T10:54:13;98709.34;;;10.09;100.00
60170;BME280;46042;49.444;6.862;2023-03-21T10:56:53;98703.06;;;10.12;100.00
60170;BME280;46042;49.444;6.862;2023-03-21T10:59:21;98704.25;;;10.20;100.00
60170;BME280;46042;49.444;6.862;2023-03-21T11:01:50;98711.59;;;10.15;100.00
60170;BME280;46042;49.444;6.862;2023-03-21T11:04:20;98716.94;;;10.28;100.00
60170;BME280;46042;49.444;6.862;2023-03-21T11:06:53;98702.91;;;10.42;100.00
60170;BME280;46042;49.444;6.862;2023-03-21T11:09:22;98702.94;;;10.55;100.00
60170;BME280;46042;49.444;6.862;2023-03-21T11:14:36;98701.97;;;10.71;100.00
60170;BME280;46042;49.444;6.862;2023-03-21T11:19:47;98697.91;;;10.92;100.00
60170;BME280;46042;49.444;6.862;2023-03-21T11:22:17;98702.34;;;10.92;100.00
60170;BME280;46042;49.444;6.862;2023-03-21T11:24:52;98705.59;;;10.95;100.00
60170;BME280;46042;49.444;6.862;2023-03-21T11:27:20;98705.47;;;10.84;97.63
60170;BME280;46042;49.444;6.862;2023-03-21T11:29:49;98694.59;;;10.76;97.53
60170;BME280;46042;49.444;6.862;2023-03-21T11:32:45;98696.25;;;10.64;97.10
60170;BME280;46042;49.444;6.862;2023-03-21T11:35:22;98686.69;;;10.48;100.00
60170;BME280;46042;49.444;6.862;2023-03-21T11:37:54;98679.22;;;10.42;99.88
60170;BME280;46042;49.444;6.862;2023-03-21T11:43:00;98677.56;;;10.54;100.00
60170;BME280;46042;49.444;6.862;2023-03-21T11:45:29;98669.75;;;10.52;99.94
60170;BME280;46042;49.444;6.862;2023-03-21T11:47:58;98650.13;;;10.44;98.96
60170;BME280;46042;49.444;6.862;2023-03-21T11:50:34;98643.94;;;10.45;100.00
60170;BME280;46042;49.444;6.862;2023-03-21T11:56:25;98633.09;;;10.35;100.00
60170;BME280;46042;49.444;6.862;2023-03-21T12:02:02;98630.28;;;10.65;100.00
60170;BME280;46042;49.444;6.862;2023-03-21T12:04:40;98626.81;;;10.78;100.00
60170;BME280;46042;49.444;6.862;2023-03-21T12:12:47;98628.22;;;11.22;100.00
60170;BME280;46042;49.444;6.862;2023-03-21T12:15:24;98622.53;;;11.16;100.00
60170;BME280;46042;49.444;6.862;2023-03-21T12:18:08;98618.75;;;11.07;100.00
60170;BME280;46042;49.444;6.862;2023-03-21T12:21:11;98626.44;;;11.10;99.40
60170;BME280;46042;49.444;6.862;2023-03-21T12:26:10;98621.47;;;11.31;99.91
60170;BME280;46042;49.444;6.862;2023-03-21T12:33:57;98598.19;;;11.25;100.00
60170;BME280;46042;49.444;6.862;2023-03-21T12:36:59;98588.25;;;11.29;99.31
60170;BME280;46042;49.444;6.862;2023-03-21T12:39:38;98576.44;;;11.34;100.00
60170;BME280;46042;49.444;6.862;2023-03-21T12:44:44;98539.09;;;11.28;99.68
60170;BME280;46042;49.444;6.862;2023-03-21T12:47:18;98512.72;;;11.28;100.00
60170;BME280;46042;49.444;6.862;2023-03-21T12:50:01;98508.13;;;11.18;100.00
60170;BME280;46042;49.444;6.862;2023-03-21T12:52:32;98540.94;;;11.14;99.33
60170;BME280;46042;49.444;6.862;2023-03-21T12:55:05;98521.50;;;11.02;100.00
60170;BME280;46042;49.444;6.862;2023-03-21T12:57:44;98516.66;;;11.09;99.88
60170;BME280;46042;49.444;6.862;2023-03-21T13:00:47;98511.38;;;11.22;99.78
60170;BME280;46042;49.444;6.862;2023-03-21T13:03:22;98517.81;;;11.31;98.15
60170;BME280;46042;49.444;6.862;2023-03-21T13:06:05;98531.84;;;11.56;99.14
60170;BME280;46042;49.444;6.862;2023-03-21T13:11:04;98538.34;;;11.76;95.28
60170;BME280;46042;49.444;6.862;2023-03-21T13:13:39;98543.25;;;11.80;93.80
60170;BME280;46042;49.444;6.862;2023-03-21T13:16:27;98540.81;;;11.90;94.72
60170;BME280;46042;49.444;6.862;2023-03-21T13:21:50;98547.44;;;12.09;95.99
60170;BME280;46042;49.444;6.862;2023-03-21T13:24:33;98548.75;;;12.15;93.31
60170;BME280;46042;49.444;6.862;2023-03-21T13:27:13;98555.50;;;12.19;91.45
60170;BME280;46042;49.444;6.862;2023-03-21T13:29:50;98561.59;;;11.95;90.65
60170;BME280;46042;49.444;6.862;2023-03-21T13:32:31;98558.38;;;12.16;95.10
60170;BME280;46042;49.444;6.862;2023-03-21T13:37:39;98517.44;;;12.21;89.61
60170;BME280;46042;49.444;6.862;2023-03-21T13:40:21;98498.94;;;11.97;88.90
60170;BME280;46042;49.444;6.862;2023-03-21T13:42:58;98492.94;;;11.95;88.08
60170;BME280;46042;49.444;6.862;2023-03-21T13:45:50;98511.31;;;11.97;92.09
60170;BME280;46042;49.444;6.862;2023-03-21T13:48:29;98531.44;;;11.86;89.62
60170;BME280;46042;49.444;6.862;2023-03-21T13:51:04;98544.28;;;11.91;92.01
60170;BME280;46042;49.444;6.862;2023-03-21T13:53:39;98535.81;;;11.99;87.93
60170;BME280;46042;49.444;6.862;2023-03-21T13:56:14;98541.06;;;12.12;87.95
60170;BME280;46042;49.444;6.862;2023-03-21T14:01:31;98528.81;;;12.11;85.02
60170;BME280;46042;49.444;6.862;2023-03-21T14:04:19;98537.59;;;12.22;88.74
60170;BME280;46042;49.444;6.862;2023-03-21T14:07:24;98547.59;;;12.19;86.17
60170;BME280;46042;49.444;6.862;2023-03-21T14:09:53;98547.66;;;11.93;84.13
60170;BME280;46042;49.444;6.862;2023-03-21T14:12:25;98555.53;;;12.06;88.48
60170;BME280;46042;49.444;6.862;2023-03-21T14:14:58;98538.66;;;12.08;86.92
60170;BME280;46042;49.444;6.862;2023-03-21T14:17:35;98539.50;;;12.09;85.84
60170;BME280;46042;49.444;6.862;2023-03-21T14:20:16;98539.88;;;11.91;86.66
60170;BME280;46042;49.444;6.862;2023-03-21T14:22:46;98527.09;;;11.85;85.49
60170;BME280;46042;49.444;6.862;2023-03-21T14:25:16;98525.88;;;11.78;85.44
60170;BME280;46042;49.444;6.862;2023-03-21T14:27:49;98521.03;;;11.96;87.04
60170;BME280;46042;49.444;6.862;2023-03-21T14:30:25;98507.00;;;11.95;83.79
60170;BME280;46042;49.444;6.862;2023-03-21T14:32:57;98506.84;;;12.10;85.82
60170;BME280;46042;49.444;6.862;2023-03-21T14:35:28;98506.41;;;12.16;86.38